Time;durP1;ratioP1;P1;durP2;ratioP2;P2;SDS_P1;SDS_P2;PMS_P1;PMS_P2;Temp;Humidity;BMP_temperature;BMP_pressure;BME280_temperature;BME280_humidity;BME280_pressure;Samples;Min_cycle;Max_cycle;Signal;HPM_P1;HPM_P2
2022/10/18 00:01:57;;;;;;;15.45;10.35;;;;;;;14.13;100.00;102361.03;5281660;28;20549;-70
2022/10/18 00:04:28;;;;;;;16.58;10.85;;;;;;;14.17;100.00;102354.53;5283905;28;20024;-70
2022/10/18 00:06:59;;;;;;;14.35;10.27;;;;;;;14.08;100.00;102364.06;5281671;28;20387;-70
2022/10/18 00:09:31;;;;;;;12.10;10.18;;;;;;;14.06;100.00;102357.06;5277125;28;20025;-70
2022/10/18 00:12:02;;;;;;;15.52;10.45;;;;;;;14.06;100.00;102351.72;5287605;28;20032;-70
2022/10/18 00:14:34;;;;;;;15.45;11.95;;;;;;;14.09;100.00;102362.22;5274037;28;20450;-70
2022/10/18 00:17:05;;;;;;;16.27;12.27;;;;;;;14.08;100.00;102360.50;5266618;28;20089;-70
2022/10/18 00:19:36;;;;;;;11.75;10.30;;;;;;;14.06;100.00;102365.13;5263646;28;20494;-70
2022/10/18 00:22:07;;;;;;;13.70;10.43;;;;;;;14.20;100.00;102357.00;5256703;28;20094;-70
2022/10/18 00:24:39;;;;;;;17.08;11.48;;;;;;;14.07;100.00;102359.63;5271472;28;20048;-70
2022/10/18 00:27:11;;;;;;;13.55;11.23;;;;;;;14.10;100.00;102361.28;5282363;28;20431;-69
2022/10/18 00:29:42;;;;;;;16.33;10.52;;;;;;;14.24;100.00;102361.19;5263176;28;20028;-70
2022/10/18 00:32:13;;;;;;;12.90;10.35;;;;;;;14.09;100.00;102356.84;5273591;28;20035;-70
2022/10/18 00:34:44;;;;;;;15.23;10.23;;;;;;;14.17;100.00;102350.97;5272022;28;20529;-70
2022/10/18 00:37:16;;;;;;;16.40;11.60;;;;;;;14.11;100.00;102353.13;5267679;28;20496;-70
2022/10/18 00:39:48;;;;;;;14.65;11.23;;;;;;;14.13;100.00;102353.00;5270831;28;20337;-70
2022/10/18 00:42:21;;;;;;;15.60;11.00;;;;;;;14.10;100.00;102353.22;5262997;28;20671;-70
2022/10/18 00:45:25;;;;;;;15.48;11.07;;;;;;;14.21;100.00;102357.84;5270588;28;20028;-70
2022/10/18 00:48:03;;;;;;;13.45;10.90;;;;;;;14.09;100.00;102357.72;5221242;28;20044;-70
2022/10/18 00:50:35;;;;;;;11.60;10.13;;;;;;;14.11;100.00;102361.16;5268828;28;20067;-70
2022/10/18 00:53:14;;;;;;;13.02;9.90;;;;;;;14.07;100.00;102358.78;5272879;28;20436;-70
2022/10/18 00:55:46;;;;;;;14.98;11.65;;;;;;;14.07;100.00;102366.81;5278681;28;20052;-70
2022/10/18 00:58:18;;;;;;;10.75;9.27;;;;;;;14.03;100.00;102366.16;5276712;28;20036;-70
2022/10/18 01:00:50;;;;;;;12.55;10.02;;;;;;;14.22;100.00;102364.94;5274530;28;20034;-69
2022/10/18 01:03:21;;;;;;;12.43;9.40;;;;;;;14.13;100.00;102369.09;5277421;28;20498;-69
2022/10/18 01:05:52;;;;;;;12.77;9.88;;;;;;;14.05;100.00;102372.28;5285472;28;20036;-70
2022/10/18 01:08:38;;;;;;;11.55;8.40;;;;;;;14.05;100.00;102377.66;5267652;28;20042;-69
2022/10/18 01:11:22;;;;;;;14.38;10.15;;;;;;;14.08;100.00;102382.00;5285091;28;20032;-70
2022/10/18 01:14:10;;;;;;;14.80;10.38;;;;;;;14.12;100.00;102384.34;5277260;28;20032;-70
2022/10/18 01:16:47;;;;;;;11.50;8.93;;;;;;;14.14;100.00;102381.56;5275071;28;20029;-69
2022/10/18 01:19:41;;;;;;;11.82;8.75;;;;;;;14.16;100.00;102381.47;5274587;28;20032;-71
2022/10/18 01:22:22;;;;;;;12.70;9.48;;;;;;;14.03;100.00;102370.69;5273475;28;20017;-70
2022/10/18 01:25:02;;;;;;;14.35;10.25;;;;;;;14.05;100.00;102377.66;5279352;28;20036;-70
2022/10/18 01:28:05;;;;;;;11.55;8.60;;;;;;;14.14;100.00;102378.88;5270909;28;20463;-69
2022/10/18 01:30:44;;;;;;;14.45;10.32;;;;;;;14.05;100.00;102372.28;5248271;28;20035;-70
2022/10/18 01:33:34;;;;;;;12.50;9.93;;;;;;;14.06;100.00;102381.22;5260499;28;20044;-69
2022/10/18 01:36:08;;;;;;;10.32;9.02;;;;;;;14.02;100.00;102377.88;5259954;28;20056;-69
2022/10/18 01:38:41;;;;;;;11.63;9.32;;;;;;;13.99;100.00;102379.91;5265658;28;20041;-69
2022/10/18 01:41:14;;;;;;;11.27;9.00;;;;;;;14.09;100.00;102384.56;5279265;28;20028;-69
2022/10/18 01:43:49;;;;;;;10.35;9.20;;;;;;;14.01;100.00;102386.88;5267862;28;20286;-69
2022/10/18 01:46:23;;;;;;;10.75;8.77;;;;;;;13.93;100.00;102378.50;5265583;28;20099;-69
2022/10/18 01:48:55;;;;;;;12.13;9.43;;;;;;;13.96;100.00;102375.63;5259846;28;20110;-69
2022/10/18 01:51:30;;;;;;;16.33;9.52;;;;;;;13.96;100.00;102378.31;5270202;28;20059;-69
2022/10/18 01:54:01;;;;;;;12.70;8.90;;;;;;;13.92;100.00;102374.06;5255473;28;20082;-69
2022/10/18 01:57:10;;;;;;;11.63;8.13;;;;;;;14.00;100.00;102377.13;5272348;28;20033;-69
2022/10/18 02:00:05;;;;;;;10.82;8.52;;;;;;;14.02;100.00;102380.56;5268291;28;20029;-67
2022/10/18 02:02:49;;;;;;;14.80;10.13;;;;;;;13.93;100.00;102381.19;5282368;28;20370;-69
2022/10/18 02:05:39;;;;;;;12.45;9.07;;;;;;;14.01;100.00;102375.31;5283209;28;20100;-70
2022/10/18 02:08:38;;;;;;;11.48;9.70;;;;;;;13.99;100.00;102383.44;5274069;28;20058;-69
2022/10/18 02:11:12;;;;;;;11.50;9.40;;;;;;;13.92;100.00;102385.69;5282834;28;20023;-69
2022/10/18 02:13:49;;;;;;;;;;;;;;;14.01;100.00;102381.53;5289868;28;20826;-69
2022/10/18 02:16:28;;;;;;;12.65;9.48;;;;;;;13.87;100.00;102374.38;5283870;28;20315;-70
2022/10/18 02:19:08;;;;;;;9.43;8.43;;;;;;;13.91;100.00;102373.22;5277479;28;20399;-70
2022/10/18 02:21:42;;;;;;;10.65;9.38;;;;;;;13.81;100.00;102372.13;5265431;28;20040;-69
2022/10/18 02:24:14;;;;;;;10.27;9.23;;;;;;;13.81;100.00;102382.84;5284422;28;20470;-69
2022/10/18 02:26:46;;;;;;;11.07;9.02;;;;;;;13.81;100.00;102380.16;5282706;28;20036;-69
2022/10/18 02:29:17;;;;;;;10.70;9.27;;;;;;;13.83;100.00;102388.97;5289369;28;20028;-69
2022/10/18 02:31:58;;;;;;;11.73;9.85;;;;;;;13.84;100.00;102389.81;5284306;28;20039;-69
2022/10/18 02:34:40;;;;;;;13.27;9.75;;;;;;;13.81;100.00;102380.16;5281241;28;20541;-70
2022/10/18 02:37:13;;;;;;;13.35;10.30;;;;;;;13.74;100.00;102381.53;5273871;28;20058;-69
2022/10/18 02:39:47;;;;;;;13.43;9.70;;;;;;;13.72;100.00;102386.97;5261999;28;20021;-69
2022/10/18 02:42:18;;;;;;;11.63;9.43;;;;;;;13.75;100.00;102385.94;5275033;28;20111;-69
2022/10/18 02:44:50;;;;;;;9.48;8.45;;;;;;;13.82;100.00;102391.75;5265519;28;20478;-69
2022/10/18 02:47:21;;;;;;;10.55;9.18;;;;;;;13.73;100.00;102395.91;5258428;28;21051;-69
2022/10/18 02:49:52;;;;;;;12.13;9.77;;;;;;;13.66;100.00;102387.38;5268087;28;20489;-69
2022/10/18 02:52:23;;;;;;;11.77;9.45;;;;;;;13.69;100.00;102392.56;5268692;28;20637;-69
2022/10/18 02:54:55;;;;;;;12.15;9.95;;;;;;;13.69;100.00;102394.38;5268234;28;20502;-69
2022/10/18 02:57:26;;;;;;;10.82;9.70;;;;;;;13.69;100.00;102389.88;5269605;28;20029;-69
2022/10/18 02:59:57;;;;;;;14.18;10.45;;;;;;;13.75;100.00;102391.31;5282962;28;20051;-69
2022/10/18 03:02:28;;;;;;;13.82;9.98;;;;;;;13.74;100.00;102386.88;5262091;28;20027;-69
2022/10/18 03:05:00;;;;;;;13.82;10.20;;;;;;;13.79;100.00;102387.47;5271766;28;20458;-69
2022/10/18 03:07:31;;;;;;;14.68;10.95;;;;;;;13.73;100.00;102382.50;5268733;28;20032;-69
2022/10/18 03:10:03;;;;;;;17.17;11.25;;;;;;;13.79;100.00;102389.25;5265839;28;20044;-70
2022/10/18 03:12:34;;;;;;;12.68;10.38;;;;;;;13.81;100.00;102396.25;5280200;28;20048;-69
2022/10/18 03:15:05;;;;;;;12.85;9.80;;;;;;;13.80;100.00;102396.34;5271340;28;20122;-69
2022/10/18 03:17:37;;;;;;;15.07;11.50;;;;;;;13.74;100.00;102394.94;5262870;28;20395;-69
2022/10/18 03:20:09;;;;;;;13.13;9.98;;;;;;;13.75;100.00;102385.06;5267537;28;20501;-69
2022/10/18 03:22:40;;;;;;;17.00;12.98;;;;;;;13.75;100.00;102388.63;5274481;28;20113;-69
2022/10/18 03:25:11;;;;;;;15.70;12.43;;;;;;;13.83;100.00;102391.66;5255157;28;20032;-69
2022/10/18 03:27:42;;;;;;;18.83;13.23;;;;;;;13.74;100.00;102400.31;5265108;28;20032;-69
2022/10/18 03:30:14;;;;;;;15.00;12.23;;;;;;;13.68;100.00;102408.75;5274292;28;20031;-69
2022/10/18 03:32:45;;;;;;;23.02;15.18;;;;;;;13.75;100.00;102404.72;5267010;28;20035;-69
2022/10/18 03:35:16;;;;;;;20.67;12.70;;;;;;;13.83;100.00;102388.97;5273193;28;20029;-70
2022/10/18 03:37:48;;;;;;;14.93;11.68;;;;;;;13.68;100.00;102396.19;5276581;28;20124;-69
2022/10/18 03:40:19;;;;;;;16.38;12.55;;;;;;;13.69;100.00;102405.09;5273182;28;20728;-69
2022/10/18 03:42:50;;;;;;;15.80;13.93;;;;;;;13.70;100.00;102406.81;5265274;28;21887;-69
2022/10/18 03:45:22;;;;;;;20.40;15.00;;;;;;;13.71;100.00;102411.22;5263462;28;20033;-69
2022/10/18 03:47:53;;;;;;;19.88;16.15;;;;;;;13.71;100.00;102401.38;5257166;28;20036;-69
2022/10/18 03:50:24;;;;;;;19.42;14.95;;;;;;;13.77;100.00;102392.06;5265969;28;20063;-69
2022/10/18 03:52:55;;;;;;;16.00;13.63;;;;;;;13.69;100.00;102389.00;5271370;28;20032;-69
2022/10/18 03:55:27;;;;;;;14.80;13.18;;;;;;;13.65;100.00;102383.00;5263156;28;20047;-69
2022/10/18 03:57:58;;;;;;;16.90;12.25;;;;;;;13.62;100.00;102374.28;5264839;28;20469;-69
2022/10/18 04:00:30;;;;;;;16.10;11.98;;;;;;;13.57;100.00;102374.56;5276402;28;20086;-69
2022/10/18 04:03:01;;;;;;;14.32;11.23;;;;;;;13.64;100.00;102375.03;5283079;28;20033;-69
2022/10/18 04:05:33;;;;;;;11.98;10.68;;;;;;;13.65;100.00;102384.78;5285701;28;20020;-70
2022/10/18 04:08:04;;;;;;;12.50;10.63;;;;;;;13.61;100.00;102381.44;5285469;28;20046;-69
2022/10/18 04:10:37;;;;;;;12.82;11.48;;;;;;;13.59;100.00;102385.19;5284116;28;20036;-69
2022/10/18 04:13:08;;;;;;;15.73;12.10;;;;;;;13.59;100.00;102385.19;5271256;28;20029;-69
2022/10/18 04:15:40;;;;;;;13.93;10.43;;;;;;;13.59;100.00;102385.19;5280120;28;20429;-70
2022/10/18 04:18:11;;;;;;;13.88;12.10;;;;;;;13.50;100.00;102387.53;5272016;28;20139;-69
2022/10/18 04:20:42;;;;;;;13.80;11.75;;;;;;;13.51;100.00;102381.19;5290418;28;20042;-69
2022/10/18 04:23:14;;;;;;;12.45;11.15;;;;;;;13.54;100.00;102382.84;5284281;28;20112;-69
2022/10/18 04:25:45;;;;;;;13.10;11.70;;;;;;;13.55;100.00;102392.56;5276024;28;20033;-69
2022/10/18 04:28:17;;;;;;;15.25;11.80;;;;;;;13.56;100.00;102394.31;5273383;28;20115;-69
2022/10/18 04:30:50;;;;;;;14.90;11.80;;;;;;;13.50;100.00;102398.25;5278988;28;20036;-70
2022/10/18 04:33:22;;;;;;;14.30;12.20;;;;;;;13.44;100.00;102395.97;5265978;28;20028;-70
2022/10/18 04:35:53;;;;;;;16.35;13.02;;;;;;;13.41;100.00;102393.47;5263132;28;20030;-69
2022/10/18 04:38:24;;;;;;;14.40;11.85;;;;;;;13.43;100.00;102396.06;5265293;28;20119;-69
2022/10/18 04:40:56;;;;;;;18.48;13.35;;;;;;;13.41;100.00;102404.19;5276889;28;20032;-69
2022/10/18 04:43:27;;;;;;;15.55;12.75;;;;;;;13.44;100.00;102412.06;5263326;28;20016;-69
2022/10/18 04:45:59;;;;;;;13.73;12.13;;;;;;;13.39;100.00;102406.13;5259463;28;20041;-69
2022/10/18 04:48:30;;;;;;;16.20;12.23;;;;;;;13.37;100.00;102400.00;5258038;28;20032;-70
2022/10/18 04:51:02;;;;;;;13.40;11.27;;;;;;;13.49;100.00;102401.88;5256126;28;20032;-69
2022/10/18 04:53:33;;;;;;;14.43;12.38;;;;;;;13.42;100.00;102399.69;5252730;28;20033;-69
2022/10/18 04:56:05;;;;;;;14.55;11.98;;;;;;;13.39;100.00;102413.31;5274862;28;20096;-69
2022/10/18 04:58:36;;;;;;;15.38;12.20;;;;;;;13.37;100.00;102409.88;5267728;28;20035;-69
2022/10/18 05:01:07;;;;;;;14.10;12.60;;;;;;;13.26;100.00;102405.13;5276097;28;20020;-69
2022/10/18 05:03:39;;;;;;;18.15;14.52;;;;;;;13.33;100.00;102409.19;5277758;28;20290;-69
2022/10/18 05:06:10;;;;;;;15.50;13.85;;;;;;;13.32;100.00;102397.59;5263702;28;20489;-69
2022/10/18 05:08:41;;;;;;;17.08;14.95;;;;;;;13.25;100.00;102395.34;5265557;28;20052;-70
2022/10/18 05:11:13;;;;;;;15.63;13.38;;;;;;;13.28;100.00;102400.53;5264487;28;20491;-69
2022/10/18 05:13:44;;;;;;;18.15;14.30;;;;;;;13.24;100.00;102412.41;5278384;28;20029;-69
2022/10/18 05:16:15;;;;;;;15.15;12.63;;;;;;;13.34;100.00;102417.09;5273844;28;20517;-69
2022/10/18 05:18:47;;;;;;;17.05;14.32;;;;;;;13.23;100.00;102411.56;5260757;28;20550;-70
2022/10/18 05:21:18;;;;;;;17.27;13.10;;;;;;;13.26;100.00;102413.19;5265633;28;20560;-69
2022/10/18 05:23:49;;;;;;;16.05;13.98;;;;;;;13.24;100.00;102420.44;5273032;28;20386;-69
2022/10/18 05:26:20;;;;;;;17.48;14.07;;;;;;;13.17;100.00;102421.78;5268714;28;20686;-69
2022/10/18 05:28:52;;;;;;;17.23;14.13;;;;;;;13.10;100.00;102424.84;5267849;28;20099;-69
2022/10/18 05:31:23;;;;;;;21.08;14.70;;;;;;;13.09;100.00;102417.75;5264862;28;20043;-69
2022/10/18 05:33:54;;;;;;;15.43;13.38;;;;;;;13.13;100.00;102430.03;5261025;28;20102;-69
2022/10/18 05:36:26;;;;;;;16.05;13.50;;;;;;;13.13;100.00;102432.72;5272561;28;20028;-69
2022/10/18 05:38:57;;;;;;;18.10;14.07;;;;;;;13.05;100.00;102421.59;5268408;28;20075;-69
2022/10/18 05:41:28;;;;;;;17.48;14.20;;;;;;;13.03;100.00;102426.19;5273354;28;20027;-69
2022/10/18 05:44:04;;;;;;;17.25;14.82;;;;;;;13.02;100.00;102424.47;5277367;28;20036;-69
2022/10/18 05:46:35;;;;;;;22.40;14.73;;;;;;;12.99;100.00;102413.94;5280975;28;20397;-69
2022/10/18 05:49:11;;;;;;;29.52;16.05;;;;;;;13.00;100.00;102418.34;5281797;28;20301;-69
2022/10/18 05:51:42;;;;;;;28.85;17.27;;;;;;;12.94;100.00;102422.25;5283764;28;20031;-69
2022/10/18 05:54:14;;;;;;;28.45;15.95;;;;;;;13.00;100.00;102426.38;5279861;28;20036;-69
2022/10/18 05:56:45;;;;;;;32.38;17.27;;;;;;;12.97;100.00;102431.91;5274441;28;20032;-69
2022/10/18 05:59:17;;;;;;;41.25;17.50;;;;;;;12.91;100.00;102433.16;5269523;28;20032;-69
2022/10/18 06:01:48;;;;;;;35.17;17.05;;;;;;;12.91;100.00;102430.47;5258423;28;20024;-69
2022/10/18 06:04:19;;;;;;;26.08;16.05;;;;;;;12.93;100.00;102430.38;5275456;28;20028;-69
2022/10/18 06:06:51;;;;;;;28.02;15.48;;;;;;;12.98;100.00;102439.00;5270802;28;20031;-69
2022/10/18 06:09:22;;;;;;;30.65;14.75;;;;;;;12.94;100.00;102438.34;5275219;28;20048;-69
2022/10/18 06:11:54;;;;;;;32.22;16.20;;;;;;;12.90;100.00;102441.28;5274125;28;20028;-69
2022/10/18 06:14:25;;;;;;;30.08;15.40;;;;;;;12.85;100.00;102443.41;5271548;28;20032;-69
2022/10/18 06:16:56;;;;;;;36.78;15.65;;;;;;;12.87;100.00;102442.34;5276835;28;20576;-69
2022/10/18 06:19:28;;;;;;;21.63;14.35;;;;;;;12.87;100.00;102442.34;5271759;28;20506;-69
2022/10/18 06:21:59;;;;;;;35.05;14.60;;;;;;;12.89;100.00;102448.47;5288691;28;20427;-69
2022/10/18 06:24:30;;;;;;;29.65;15.82;;;;;;;12.85;100.00;102446.09;5278016;28;20079;-69
2022/10/18 06:27:07;;;;;;;38.63;15.38;;;;;;;12.92;100.00;102460.81;5279618;28;20029;-69
2022/10/18 06:29:39;;;;;;;29.83;14.63;;;;;;;12.94;100.00;102448.16;5266571;28;20382;-68
2022/10/18 06:32:11;;;;;;;25.63;15.32;;;;;;;13.02;100.00;102458.41;5283023;28;20034;-68
2022/10/18 06:34:42;;;;;;;26.60;14.85;;;;;;;12.92;100.00;102463.47;5277757;28;20053;-69
2022/10/18 06:37:13;;;;;;;27.27;14.95;;;;;;;12.91;100.00;102467.97;5265601;28;20047;-69
2022/10/18 06:39:44;;;;;;;37.50;16.98;;;;;;;13.03;100.00;102476.25;5279407;28;20449;-69
2022/10/18 06:42:16;;;;;;;34.83;17.10;;;;;;;13.01;100.00;102467.44;5279558;28;20607;-69
2022/10/18 06:44:47;;;;;;;29.00;15.38;;;;;;;13.19;100.00;102468.97;5281182;28;20028;-69
2022/10/18 06:47:18;;;;;;;31.02;16.63;;;;;;;13.00;100.00;102463.91;5273707;28;20044;-69
2022/10/18 06:49:49;;;;;;;35.30;17.33;;;;;;;12.95;100.00;102466.84;5280482;28;20028;-69
2022/10/18 06:52:24;;;;;;;37.88;17.85;;;;;;;12.90;100.00;102473.44;5285752;28;20067;-69
2022/10/18 06:54:55;;;;;;;44.50;18.20;;;;;;;12.88;100.00;102475.34;5279167;28;20045;-69
2022/10/18 06:57:27;;;;;;;46.42;18.58;;;;;;;12.87;100.00;102495.91;5266592;28;20047;-69
2022/10/18 06:59:58;;;;;;;49.22;19.65;;;;;;;12.83;100.00;102501.53;5282840;28;20068;-69
2022/10/18 07:02:29;;;;;;;54.25;20.38;;;;;;;12.79;100.00;102502.66;5277435;28;20020;-69
2022/10/18 07:05:00;;;;;;;49.95;20.25;;;;;;;12.77;100.00;102492.06;5277713;28;20067;-69
2022/10/18 07:07:32;;;;;;;34.95;19.20;;;;;;;12.77;100.00;102500.09;5263702;28;20025;-69
2022/10/18 07:10:04;;;;;;;32.53;19.05;;;;;;;12.75;100.00;102505.56;5273032;28;20028;-69
2022/10/18 07:12:35;;;;;;;38.72;19.67;;;;;;;12.73;100.00;102509.25;5267546;28;20640;-69
2022/10/18 07:15:07;;;;;;;29.17;18.45;;;;;;;12.76;100.00;102514.44;5267458;28;20024;-69
2022/10/18 07:17:38;;;;;;;30.70;18.95;;;;;;;12.74;100.00;102516.34;5264125;28;20037;-69
2022/10/18 07:20:10;;;;;;;44.03;19.83;;;;;;;12.78;100.00;102517.03;5266152;28;20031;-69
2022/10/18 07:22:42;;;;;;;52.80;23.02;;;;;;;12.73;100.00;102512.81;5258924;28;20394;-69
2022/10/18 07:25:13;;;;;;;42.80;22.08;;;;;;;12.75;100.00;102513.59;5265189;28;20028;-69
2022/10/18 07:27:44;;;;;;;115.28;26.17;;;;;;;12.75;100.00;102529.66;5260002;28;20051;-69
2022/10/18 07:30:16;;;;;;;96.93;25.60;;;;;;;12.78;100.00;102539.31;5284077;28;20035;-69
2022/10/18 07:32:49;;;;;;;48.92;23.98;;;;;;;12.80;100.00;102537.41;5272272;28;20060;-69
2022/10/18 07:35:20;;;;;;;55.50;25.17;;;;;;;12.86;100.00;102538.88;5272460;28;20028;-69
2022/10/18 07:37:52;;;;;;;63.40;25.70;;;;;;;12.88;100.00;102548.53;5269911;28;20035;-69
2022/10/18 07:40:23;;;;;;;58.92;26.40;;;;;;;12.88;100.00;102547.66;5289125;28;20028;-69
2022/10/18 07:42:54;;;;;;;63.05;27.30;;;;;;;12.89;100.00;102549.41;5280550;28;20024;-69
2022/10/18 07:45:25;;;;;;;59.80;27.15;;;;;;;12.93;100.00;102550.94;5280945;28;20040;-69
2022/10/18 07:47:57;;;;;;;57.15;26.40;;;;;;;12.96;100.00;102556.09;5271665;28;20037;-69
2022/10/18 07:50:28;;;;;;;53.58;27.00;;;;;;;12.96;100.00;102572.19;5271178;28;20021;-69
2022/10/18 07:53:00;;;;;;;56.15;27.50;;;;;;;13.00;100.00;102570.19;5281653;28;20795;-69
2022/10/18 07:55:31;;;;;;;66.88;29.88;;;;;;;12.98;100.00;102575.63;5271072;28;20045;-69
2022/10/18 07:58:02;;;;;;;61.75;29.67;;;;;;;13.04;100.00;102585.13;5280096;28;20027;-69
2022/10/18 08:00:33;;;;;;;62.25;28.30;;;;;;;13.03;100.00;102588.78;5276917;28;20036;-69
2022/10/18 08:03:05;;;;;;;49.92;28.42;;;;;;;13.07;100.00;102587.63;5274496;28;20027;-68
2022/10/18 08:05:36;;;;;;;59.75;29.92;;;;;;;13.10;100.00;102590.16;5291922;28;20734;-68
2022/10/18 08:08:07;;;;;;;53.17;30.27;;;;;;;13.17;100.00;102594.16;5274800;28;20028;-69
2022/10/18 08:10:39;;;;;;;55.03;29.83;;;;;;;13.22;100.00;102600.13;5268467;28;20082;-68
2022/10/18 08:13:10;;;;;;;53.97;27.85;;;;;;;13.20;100.00;102604.72;5289717;28;20028;-68
2022/10/18 08:15:42;;;;;;;45.10;27.17;;;;;;;13.19;100.00;102607.47;5255759;28;20117;-68
2022/10/18 08:18:13;;;;;;;48.45;25.77;;;;;;;13.17;100.00;102607.56;5263993;28;20051;-68
2022/10/18 08:20:45;;;;;;;40.30;24.58;;;;;;;13.22;100.00;102602.81;5262534;28;20029;-69
2022/10/18 08:23:16;;;;;;;47.08;26.35;;;;;;;13.22;100.00;102605.50;5256509;28;20104;-69
2022/10/18 08:25:47;;;;;;;44.15;25.55;;;;;;;13.23;100.00;102617.06;5271147;28;20028;-69
2022/10/18 08:28:19;;;;;;;48.95;25.85;;;;;;;13.25;100.00;102616.03;5257687;28;20047;-68
2022/10/18 08:30:50;;;;;;;39.40;26.00;;;;;;;13.31;100.00;102618.38;5270534;28;20064;-70
2022/10/18 08:33:21;;;;;;;46.45;24.33;;;;;;;13.32;100.00;102619.25;5277701;28;20041;-70
2022/10/18 08:35:58;;;;;;;39.80;23.70;;;;;;;13.33;100.00;102620.97;5281892;28;20040;-70
2022/10/18 08:38:32;;;;;;;44.90;24.40;;;;;;;13.37;100.00;102625.19;5266139;28;20089;-68
2022/10/18 08:41:22;;;;;;;42.63;24.73;;;;;;;13.43;100.00;102638.22;5271289;28;20036;-69
2022/10/18 08:44:30;;;;;;;39.88;24.52;;;;;;;13.48;100.00;102625.41;5284365;28;20051;-69
2022/10/18 08:47:13;;;;;;;42.83;24.65;;;;;;;13.49;100.00;102626.28;5280967;28;20016;-68
2022/10/18 08:49:56;;;;;;;37.80;24.33;;;;;;;13.49;100.00;102624.44;5284051;28;20056;-69
2022/10/18 08:52:56;;;;;;;37.55;22.20;;;;;;;13.58;100.00;102630.22;5269489;28;20029;-69
2022/10/18 08:55:35;;;;;;;38.42;21.85;;;;;;;13.60;100.00;102631.84;5265977;28;20059;-68
2022/10/18 08:58:22;;;;;;;36.58;22.08;;;;;;;13.64;100.00;102625.34;5280959;28;20503;-69
2022/10/18 09:01:12;;;;;;;38.00;23.15;;;;;;;13.68;100.00;102634.06;5279421;28;20083;-68
2022/10/18 09:04:18;;;;;;;35.47;22.08;;;;;;;13.74;100.00;102644.41;5275849;28;20028;-70
2022/10/18 09:07:05;;;;;;;33.67;21.15;;;;;;;13.82;100.00;102638.59;5277859;28;20043;-70
2022/10/18 09:09:51;;;;;;;34.95;21.77;;;;;;;13.86;100.00;102634.75;5271535;28;20032;-70
2022/10/18 09:12:34;;;;;;;35.42;21.10;;;;;;;13.78;100.00;102634.38;5282777;28;20029;-70
2022/10/18 09:15:17;;;;;;;33.47;21.98;;;;;;;13.80;100.00;102638.66;5281416;28;20028;-68
2022/10/18 09:18:07;;;;;;;31.40;21.42;;;;;;;13.87;100.00;102648.06;5281685;28;20028;-69
2022/10/18 09:21:05;;;;;;;30.83;19.73;;;;;;;13.80;100.00;102638.66;5279080;28;20417;-69
2022/10/18 09:23:48;;;;;;;30.30;19.17;;;;;;;13.84;100.00;102636.66;5280903;28;20037;-70
2022/10/18 09:26:23;;;;;;;35.25;20.77;;;;;;;13.84;100.00;102628.63;5281445;28;20370;-70
2022/10/18 09:29:17;;;;;;;31.10;19.90;;;;;;;13.87;100.00;102641.84;5271759;28;20039;-70
2022/10/18 09:31:58;;;;;;;36.72;19.08;;;;;;;13.87;100.00;102637.34;5266345;28;20540;-69
2022/10/18 09:34:38;;;;;;;34.47;21.40;;;;;;;13.83;100.00;102627.75;5276433;28;20098;-69
2022/10/18 09:37:16;;;;;;;28.48;19.52;;;;;;;14.00;100.00;102631.19;5268834;28;20043;-69
2022/10/18 09:39:50;;;;;;;30.73;17.85;;;;;;;13.96;100.00;102637.72;5280531;28;20117;-69
2022/10/18 09:42:53;;;;;;;26.65;16.48;;;;;;;14.03;100.00;102642.59;5283586;28;20398;-70
2022/10/18 09:45:29;;;;;;;27.92;15.82;;;;;;;14.06;100.00;102636.22;5228033;28;20059;-70
2022/10/18 09:48:20;;;;;;;26.95;16.50;;;;;;;13.98;100.00;102643.84;5278512;28;20115;-70
2022/10/18 09:50:59;;;;;;;27.15;16.77;;;;;;;14.05;100.00;102645.19;5269130;28;20032;-70
2022/10/18 09:53:43;;;;;;;29.65;17.70;;;;;;;14.00;100.00;102655.34;5284061;28;20478;-69
2022/10/18 09:56:19;;;;;;;;;;;;;;;14.05;100.00;102650.56;5286423;28;20048;-70
2022/10/18 09:58:50;;;;;;;25.75;15.80;;;;;;;14.16;100.00;102650.75;5274062;28;19916;-70
2022/10/18 10:01:24;;;;;;;24.45;16.23;;;;;;;14.20;100.00;102643.38;5272913;28;20077;-70
2022/10/18 10:03:56;;;;;;;25.77;15.98;;;;;;;14.19;100.00;102645.22;5274528;28;20157;-70
2022/10/18 10:06:30;;;;;;;30.27;16.65;;;;;;;14.19;100.00;102642.53;5273092;28;22260;-70
2022/10/18 10:09:06;;;;;;;27.35;15.23;;;;;;;14.29;100.00;102638.28;5259641;28;20039;-69
2022/10/18 10:11:44;;;;;;;22.35;11.93;;;;;;;14.34;100.00;102645.19;5259883;28;20652;-69
2022/10/18 10:14:22;;;;;;;22.63;13.68;;;;;;;14.25;100.00;102644.81;5265957;28;20029;-70
2022/10/18 10:16:55;;;;;;;22.50;12.63;;;;;;;14.28;100.00;102635.69;5260562;28;20670;-70
2022/10/18 10:19:33;;;;;;;22.55;11.85;;;;;;;14.45;100.00;102642.69;5263503;28;20473;-70
2022/10/18 10:22:11;;;;;;;25.00;11.50;;;;;;;14.36;100.00;102638.75;5266179;28;20047;-70
2022/10/18 10:24:49;;;;;;;21.83;11.25;;;;;;;14.24;100.00;102640.41;5262282;28;20017;-70
2022/10/18 10:27:42;;;;;;;22.85;10.63;;;;;;;14.35;100.00;102652.31;5266103;28;20028;-70
2022/10/18 10:30:29;;;;;;;24.83;11.02;;;;;;;14.38;100.00;102642.22;5253769;28;20039;-70
2022/10/18 10:33:01;;;;;;;20.67;9.73;;;;;;;14.47;100.00;102646.13;5278855;28;20636;-70
2022/10/18 10:35:40;;;;;;;19.15;9.27;;;;;;;14.65;100.00;102654.84;5274303;28;20393;-70
2022/10/18 10:38:25;;;;;;;16.08;9.00;;;;;;;14.45;100.00;102669.53;5267266;28;20063;-70
2022/10/18 10:40:57;;;;;;;15.73;7.65;;;;;;;14.56;100.00;102658.13;5268629;28;20064;-70
2022/10/18 10:43:31;;;;;;;14.90;6.18;;;;;;;14.50;100.00;102678.19;5272335;28;20040;-70
2022/10/18 10:46:07;;;;;;;;;;;;;;;14.56;100.00;102672.41;5261995;28;20367;-70
2022/10/18 10:48:48;;;;;;;13.23;5.90;;;;;;;14.67;100.00;102669.94;5264624;28;20043;-71
2022/10/18 10:51:40;;;;;;;17.45;7.72;;;;;;;14.60;100.00;102673.97;5283421;28;20032;-71
2022/10/18 10:54:12;;;;;;;19.25;7.03;;;;;;;14.62;100.00;102679.25;5283327;28;20068;-71
2022/10/18 10:56:55;;;;;;;18.52;8.60;;;;;;;14.63;100.00;102671.09;5288627;28;20040;-71
2022/10/18 10:59:31;;;;;;;21.17;8.85;;;;;;;14.57;100.00;102676.84;5268570;28;20040;-71
2022/10/18 11:02:25;;;;;;;15.80;7.15;;;;;;;14.64;100.00;102677.31;5275469;28;20024;-71
2022/10/18 11:05:24;;;;;;;17.65;6.43;;;;;;;14.65;100.00;102673.66;5287305;28;20115;-70
2022/10/18 11:07:58;;;;;;;16.20;6.40;;;;;;;14.82;100.00;102675.25;5269497;28;20028;-71
2022/10/18 11:10:33;;;;;;;16.90;5.82;;;;;;;14.70;100.00;102683.16;5279198;28;20055;-71
2022/10/18 11:13:52;;;;;;;13.27;4.95;;;;;;;14.78;100.00;102689.84;5289588;28;20072;-71
2022/10/18 11:16:32;;;;;;;12.57;4.25;;;;;;;14.82;100.00;102691.38;5273855;28;20489;-71
2022/10/18 11:19:23;;;;;;;16.85;4.00;;;;;;;14.88;100.00;102690.97;5269467;28;20068;-71
2022/10/18 11:21:56;;;;;;;16.80;4.28;;;;;;;14.81;100.00;102689.66;5279095;28;20042;-72
2022/10/18 11:24:27;;;;;;;9.80;4.40;;;;;;;14.95;100.00;102684.22;5272916;28;20022;-70
2022/10/18 11:27:21;;;;;;;15.13;5.03;;;;;;;14.94;100.00;102685.22;5263392;28;20036;-72
2022/10/18 11:30:21;;;;;;;13.65;3.85;;;;;;;15.01;100.00;102681.13;5280047;28;20039;-72
2022/10/18 11:33:14;;;;;;;11.45;3.50;;;;;;;15.11;100.00;102689.47;5264715;28;20020;-72
2022/10/18 11:36:13;;;;;;;12.40;3.42;;;;;;;15.02;100.00;102672.13;5266766;28;20032;-72
2022/10/18 11:38:54;;;;;;;11.10;3.80;;;;;;;15.02;100.00;102680.19;5281016;28;20024;-72
2022/10/18 11:41:45;;;;;;;11.55;3.50;;;;;;;15.08;100.00;102676.22;5279292;28;20036;-71
2022/10/18 11:44:34;;;;;;;9.43;2.80;;;;;;;15.25;100.00;102681.34;5278299;28;20024;-71